Ana Sayfa
METAR-TAF:

METAR-TAF

Havaalanları :

Lawrenceville-Vincennes International Airport

Lawrenceville, Illinois, Amerika Birleşik Devletleri

Enlem: 38-45-38N, Boylam: 087-35-56W, yükseklik: 131 m

Güncel hava durumu gözlemi

Rapor saat 21:53 UTC de 30 dakika önce yapıldı.
Rüzgar güney/güneybatıdan 6 kt
Sıcaklık 33°C
Nem 39%
Basınç 1024 hPa
Görüş mesafesi: 16.1 km
Açık gökyüzü

METAR: KLWV 202153Z AUTO 20006KT 10SM CLR 33/17 A3024 RMK AO2 SLP235 T03330172

Saat: 17:23 (22:23 UTC)


TAF: eksik

4.000'den fazla havaalanı için hava durumu gözlemleri ve tahminleri (METAR ve TAF raporları).

Kullanılabilir istasyonlar harita üzerinde sarı ve kırmızı noktalarla gösterilir.

İstasyonun adını görmek için fareyi noktanın üzerinde gezdirin.

Sonrasında hava gözlem ve tahminlerini görmek için tıklayın.

Haritayı değiştirmek için: yaklaştırmak için siyah artı işaretli yeşil düğmeye ve uzaklaştırmak için de eksi işaretli düğmeye hızla tıklayın; bitişik haritalar için yeşil okları kullanın.


METAR-TAF: